sensor_id;sensor_type;location;lat;lon;timestamp;P1;durP1;ratioP1;P2;durP2;ratioP2
45356;SDS011;31092;51.924;21.448;2024-03-23T00:56:15;17.17;;;9.50;;
45356;SDS011;31092;51.924;21.448;2024-03-23T00:58:40;15.77;;;9.13;;
45356;SDS011;31092;51.924;21.448;2024-03-23T01:01:06;14.80;;;9.90;;
45356;SDS011;31092;51.924;21.448;2024-03-23T01:03:32;14.35;;;8.70;;
45356;SDS011;31092;51.924;21.448;2024-03-23T01:06:01;18.92;;;9.00;;
45356;SDS011;31092;51.924;21.448;2024-03-23T01:08:27;18.60;;;10.35;;
45356;SDS011;31092;51.924;21.448;2024-03-23T01:13:22;17.08;;;10.23;;
45356;SDS011;31092;51.924;21.448;2024-03-23T01:15:51;17.38;;;9.75;;
45356;SDS011;31092;51.924;21.448;2024-03-23T01:18:17;17.77;;;10.13;;
45356;SDS011;31092;51.924;21.448;2024-03-23T01:20:43;19.85;;;10.38;;
45356;SDS011;31092;51.924;21.448;2024-03-23T01:23:09;15.55;;;10.55;;
45356;SDS011;31092;51.924;21.448;2024-03-23T01:25:35;18.48;;;9.55;;
45356;SDS011;31092;51.924;21.448;2024-03-23T01:28:01;18.73;;;10.20;;
45356;SDS011;31092;51.924;21.448;2024-03-23T01:30:26;15.98;;;10.73;;
45356;SDS011;31092;51.924;21.448;2024-03-23T01:32:52;18.60;;;10.63;;
45356;SDS011;31092;51.924;21.448;2024-03-23T01:35:17;17.52;;;9.98;;
45356;SDS011;31092;51.924;21.448;2024-03-23T01:37:43;19.33;;;10.55;;
45356;SDS011;31092;51.924;21.448;2024-03-23T01:40:08;19.02;;;10.55;;
45356;SDS011;31092;51.924;21.448;2024-03-23T01:42:34;19.60;;;10.20;;
45356;SDS011;31092;51.924;21.448;2024-03-23T01:45:01;14.05;;;9.05;;
45356;SDS011;31092;51.924;21.448;2024-03-23T01:47:29;17.70;;;10.07;;
45356;SDS011;31092;51.924;21.448;2024-03-23T01:49:54;19.75;;;10.02;;
45356;SDS011;31092;51.924;21.448;2024-03-23T01:52:20;17.77;;;9.48;;
45356;SDS011;31092;51.924;21.448;2024-03-23T01:54:45;15.43;;;10.07;;
45356;SDS011;31092;51.924;21.448;2024-03-23T01:57:11;17.63;;;9.70;;
45356;SDS011;31092;51.924;21.448;2024-03-23T01:59:39;19.48;;;10.20;;
45356;SDS011;31092;51.924;21.448;2024-03-23T02:02:04;13.32;;;8.68;;
45356;SDS011;31092;51.924;21.448;2024-03-23T02:04:30;17.80;;;9.85;;
45356;SDS011;31092;51.924;21.448;2024-03-23T02:06:56;14.60;;;8.93;;
45356;SDS011;31092;51.924;21.448;2024-03-23T02:09:21;18.73;;;11.70;;
45356;SDS011;31092;51.924;21.448;2024-03-23T02:11:47;16.05;;;10.23;;
45356;SDS011;31092;51.924;21.448;2024-03-23T02:14:12;19.38;;;10.98;;
45356;SDS011;31092;51.924;21.448;2024-03-23T02:16:38;19.77;;;11.02;;
45356;SDS011;31092;51.924;21.448;2024-03-23T02:19:03;21.55;;;10.57;;
45356;SDS011;31092;51.924;21.448;2024-03-23T02:21:29;22.85;;;10.07;;
45356;SDS011;31092;51.924;21.448;2024-03-23T02:23:57;19.13;;;9.88;;
45356;SDS011;31092;51.924;21.448;2024-03-23T02:26:24;22.33;;;11.85;;
45356;SDS011;31092;51.924;21.448;2024-03-23T02:28:49;19.23;;;10.57;;
45356;SDS011;31092;51.924;21.448;2024-03-23T02:31:15;21.42;;;10.85;;
45356;SDS011;31092;51.924;21.448;2024-03-23T02:33:41;16.65;;;9.90;;
45356;SDS011;31092;51.924;21.448;2024-03-23T02:36:06;15.18;;;10.18;;
45356;SDS011;31092;51.924;21.448;2024-03-23T02:38:32;20.15;;;10.70;;
45356;SDS011;31092;51.924;21.448;2024-03-23T02:41:02;16.98;;;9.73;;
45356;SDS011;31092;51.924;21.448;2024-03-23T02:43:28;27.75;;;11.02;;
45356;SDS011;31092;51.924;21.448;2024-03-23T02:45:54;20.73;;;9.20;;
45356;SDS011;31092;51.924;21.448;2024-03-23T02:48:19;21.73;;;11.25;;
45356;SDS011;31092;51.924;21.448;2024-03-23T02:50:45;17.75;;;9.93;;
45356;SDS011;31092;51.924;21.448;2024-03-23T02:53:10;16.58;;;9.65;;
45356;SDS011;31092;51.924;21.448;2024-03-23T02:55:36;19.70;;;9.95;;
45356;SDS011;31092;51.924;21.448;2024-03-23T02:58:02;19.20;;;10.32;;
45356;SDS011;31092;51.924;21.448;2024-03-23T03:00:28;19.75;;;10.52;;
45356;SDS011;31092;51.924;21.448;2024-03-23T03:02:54;18.95;;;11.85;;
45356;SDS011;31092;51.924;21.448;2024-03-23T03:05:19;20.73;;;9.77;;
45356;SDS011;31092;51.924;21.448;2024-03-23T03:07:45;13.82;;;9.30;;
45356;SDS011;31092;51.924;21.448;2024-03-23T03:10:10;19.67;;;10.80;;
45356;SDS011;31092;51.924;21.448;2024-03-23T03:12:36;20.98;;;11.02;;
45356;SDS011;31092;51.924;21.448;2024-03-23T03:15:13;22.50;;;11.52;;
45356;SDS011;31092;51.924;21.448;2024-03-23T03:17:39;18.63;;;9.98;;
45356;SDS011;31092;51.924;21.448;2024-03-23T03:20:05;25.20;;;11.05;;
45356;SDS011;31092;51.924;21.448;2024-03-23T03:22:31;22.35;;;10.50;;
45356;SDS011;31092;51.924;21.448;2024-03-23T03:24:57;17.67;;;9.52;;
45356;SDS011;31092;51.924;21.448;2024-03-23T03:27:22;18.48;;;10.10;;
45356;SDS011;31092;51.924;21.448;2024-03-23T03:29:48;15.77;;;9.48;;
45356;SDS011;31092;51.924;21.448;2024-03-23T03:32:13;20.00;;;10.10;;
45356;SDS011;31092;51.924;21.448;2024-03-23T03:34:39;17.25;;;10.52;;
45356;SDS011;31092;51.924;21.448;2024-03-23T03:37:04;20.52;;;10.60;;
45356;SDS011;31092;51.924;21.448;2024-03-23T03:39:30;20.25;;;10.63;;
45356;SDS011;31092;51.924;21.448;2024-03-23T03:41:56;19.95;;;11.55;;
45356;SDS011;31092;51.924;21.448;2024-03-23T03:44:21;17.55;;;9.85;;
45356;SDS011;31092;51.924;21.448;2024-03-23T03:46:47;17.55;;;9.77;;
45356;SDS011;31092;51.924;21.448;2024-03-23T03:49:12;19.58;;;9.90;;
45356;SDS011;31092;51.924;21.448;2024-03-23T03:51:38;18.30;;;10.68;;
45356;SDS011;31092;51.924;21.448;2024-03-23T03:54:03;20.23;;;10.05;;
45356;SDS011;31092;51.924;21.448;2024-03-23T03:56:29;19.00;;;10.63;;
45356;SDS011;31092;51.924;21.448;2024-03-23T03:58:55;20.92;;;10.88;;
45356;SDS011;31092;51.924;21.448;2024-03-23T04:01:20;22.73;;;12.35;;
45356;SDS011;31092;51.924;21.448;2024-03-23T04:03:46;19.98;;;10.25;;
45356;SDS011;31092;51.924;21.448;2024-03-23T04:06:11;19.02;;;10.43;;
45356;SDS011;31092;51.924;21.448;2024-03-23T04:08:37;18.15;;;9.93;;
45356;SDS011;31092;51.924;21.448;2024-03-23T04:11:03;19.80;;;11.18;;
45356;SDS011;31092;51.924;21.448;2024-03-23T04:13:28;19.15;;;10.25;;
45356;SDS011;31092;51.924;21.448;2024-03-23T04:15:54;22.25;;;11.45;;
45356;SDS011;31092;51.924;21.448;2024-03-23T04:18:20;19.05;;;10.52;;
45356;SDS011;31092;51.924;21.448;2024-03-23T04:20:47;24.27;;;10.70;;
45356;SDS011;31092;51.924;21.448;2024-03-23T04:23:13;21.90;;;11.27;;
45356;SDS011;31092;51.924;21.448;2024-03-23T04:25:39;81.13;;;39.10;;
45356;SDS011;31092;51.924;21.448;2024-03-23T04:28:04;35.78;;;20.08;;
45356;SDS011;31092;51.924;21.448;2024-03-23T04:30:30;18.70;;;11.05;;
45356;SDS011;31092;51.924;21.448;2024-03-23T04:32:57;18.23;;;11.20;;
45356;SDS011;31092;51.924;21.448;2024-03-23T04:35:23;22.65;;;13.50;;
45356;SDS011;31092;51.924;21.448;2024-03-23T04:37:53;22.90;;;14.18;;
45356;SDS011;31092;51.924;21.448;2024-03-23T04:40:20;18.50;;;10.30;;
45356;SDS011;31092;51.924;21.448;2024-03-23T04:42:46;19.40;;;10.90;;
45356;SDS011;31092;51.924;21.448;2024-03-23T04:45:21;22.15;;;11.93;;
45356;SDS011;31092;51.924;21.448;2024-03-23T04:47:55;23.83;;;12.55;;
45356;SDS011;31092;51.924;21.448;2024-03-23T04:50:21;27.52;;;11.60;;
45356;SDS011;31092;51.924;21.448;2024-03-23T04:52:46;15.65;;;10.15;;
45356;SDS011;31092;51.924;21.448;2024-03-23T04:55:12;21.15;;;11.75;;
45356;SDS011;31092;51.924;21.448;2024-03-23T04:57:39;30.27;;;16.08;;
45356;SDS011;31092;51.924;21.448;2024-03-23T05:00:04;25.52;;;13.32;;
45356;SDS011;31092;51.924;21.448;2024-03-23T05:02:41;23.15;;;11.32;;
45356;SDS011;31092;51.924;21.448;2024-03-23T05:05:08;21.98;;;11.57;;
45356;SDS011;31092;51.924;21.448;2024-03-23T05:07:33;21.60;;;13.10;;
45356;SDS011;31092;51.924;21.448;2024-03-23T05:09:59;20.23;;;11.57;;
45356;SDS011;31092;51.924;21.448;2024-03-23T05:12:24;22.38;;;14.27;;
45356;SDS011;31092;51.924;21.448;2024-03-23T05:14:50;18.42;;;10.73;;
45356;SDS011;31092;51.924;21.448;2024-03-23T05:17:16;19.20;;;11.75;;
45356;SDS011;31092;51.924;21.448;2024-03-23T05:19:42;22.40;;;12.05;;
45356;SDS011;31092;51.924;21.448;2024-03-23T05:22:07;16.42;;;10.07;;
45356;SDS011;31092;51.924;21.448;2024-03-23T05:24:33;16.85;;;10.48;;
45356;SDS011;31092;51.924;21.448;2024-03-23T05:26:58;22.50;;;11.38;;
45356;SDS011;31092;51.924;21.448;2024-03-23T05:29:24;20.10;;;11.45;;
45356;SDS011;31092;51.924;21.448;2024-03-23T05:31:51;66.13;;;35.55;;
45356;SDS011;31092;51.924;21.448;2024-03-23T05:34:17;39.30;;;20.52;;
45356;SDS011;31092;51.924;21.448;2024-03-23T05:36:43;39.40;;;20.67;;
45356;SDS011;31092;51.924;21.448;2024-03-23T05:39:08;20.77;;;11.85;;
45356;SDS011;31092;51.924;21.448;2024-03-23T05:41:34;27.23;;;14.45;;
45356;SDS011;31092;51.924;21.448;2024-03-23T05:44:01;24.40;;;13.25;;
45356;SDS011;31092;51.924;21.448;2024-03-23T05:46:27;20.92;;;12.25;;
45356;SDS011;31092;51.924;21.448;2024-03-23T05:48:53;24.73;;;12.80;;
45356;SDS011;31092;51.924;21.448;2024-03-23T05:51:39;20.02;;;11.15;;
45356;SDS011;31092;51.924;21.448;2024-03-23T05:54:04;22.55;;;12.65;;
45356;SDS011;31092;51.924;21.448;2024-03-23T05:56:30;27.58;;;12.20;;
45356;SDS011;31092;51.924;21.448;2024-03-23T05:58:56;23.23;;;11.63;;
45356;SDS011;31092;51.924;21.448;2024-03-23T06:01:22;22.52;;;12.02;;
45356;SDS011;31092;51.924;21.448;2024-03-23T06:03:47;22.55;;;12.75;;
45356;SDS011;31092;51.924;21.448;2024-03-23T06:06:13;25.42;;;13.50;;
45356;SDS011;31092;51.924;21.448;2024-03-23T06:08:39;25.27;;;14.00;;
45356;SDS011;31092;51.924;21.448;2024-03-23T06:11:05;18.63;;;10.63;;
45356;SDS011;31092;51.924;21.448;2024-03-23T06:13:33;21.38;;;11.75;;
45356;SDS011;31092;51.924;21.448;2024-03-23T06:16:00;20.42;;;11.85;;
45356;SDS011;31092;51.924;21.448;2024-03-23T06:18:26;19.42;;;10.82;;
45356;SDS011;31092;51.924;21.448;2024-03-23T06:20:52;20.70;;;11.05;;
45356;SDS011;31092;51.924;21.448;2024-03-23T06:23:18;23.27;;;11.02;;
45356;SDS011;31092;51.924;21.448;2024-03-23T06:25:45;19.83;;;10.98;;
45356;SDS011;31092;51.924;21.448;2024-03-23T06:28:11;22.15;;;11.18;;
45356;SDS011;31092;51.924;21.448;2024-03-23T06:30:37;22.48;;;11.57;;
45356;SDS011;31092;51.924;21.448;2024-03-23T06:33:03;19.35;;;9.75;;
45356;SDS011;31092;51.924;21.448;2024-03-23T06:35:28;16.77;;;9.15;;
45356;SDS011;31092;51.924;21.448;2024-03-23T06:37:54;18.83;;;10.85;;
45356;SDS011;31092;51.924;21.448;2024-03-23T06:40:19;20.52;;;10.82;;
45356;SDS011;31092;51.924;21.448;2024-03-23T06:42:45;19.92;;;10.07;;
45356;SDS011;31092;51.924;21.448;2024-03-23T06:45:11;19.02;;;10.32;;
45356;SDS011;31092;51.924;21.448;2024-03-23T06:47:36;19.23;;;10.18;;
45356;SDS011;31092;51.924;21.448;2024-03-23T06:50:02;16.02;;;9.15;;
45356;SDS011;31092;51.924;21.448;2024-03-23T06:52:29;23.35;;;13.55;;
45356;SDS011;31092;51.924;21.448;2024-03-23T06:54:55;22.13;;;11.30;;
45356;SDS011;31092;51.924;21.448;2024-03-23T06:57:21;17.33;;;10.52;;
45356;SDS011;31092;51.924;21.448;2024-03-23T06:59:46;20.88;;;9.40;;
45356;SDS011;31092;51.924;21.448;2024-03-23T07:02:12;17.83;;;10.65;;
45356;SDS011;31092;51.924;21.448;2024-03-23T07:04:38;18.00;;;8.98;;
45356;SDS011;31092;51.924;21.448;2024-03-23T07:07:04;20.38;;;10.52;;
45356;SDS011;31092;51.924;21.448;2024-03-23T07:09:30;17.80;;;9.70;;
45356;SDS011;31092;51.924;21.448;2024-03-23T07:11:56;20.77;;;9.80;;
45356;SDS011;31092;51.924;21.448;2024-03-23T07:14:23;19.33;;;10.68;;
45356;SDS011;31092;51.924;21.448;2024-03-23T07:16:49;20.30;;;11.90;;
45356;SDS011;31092;51.924;21.448;2024-03-23T07:19:15;20.95;;;10.23;;
45356;SDS011;31092;51.924;21.448;2024-03-23T07:21:45;15.43;;;9.18;;
45356;SDS011;31092;51.924;21.448;2024-03-23T07:24:10;18.02;;;10.02;;
45356;SDS011;31092;51.924;21.448;2024-03-23T07:26:37;20.45;;;9.95;;
45356;SDS011;31092;51.924;21.448;2024-03-23T07:29:03;17.40;;;9.75;;
45356;SDS011;31092;51.924;21.448;2024-03-23T07:31:29;28.83;;;13.90;;
45356;SDS011;31092;51.924;21.448;2024-03-23T07:33:55;29.13;;;15.13;;
45356;SDS011;31092;51.924;21.448;2024-03-23T07:36:21;25.38;;;12.43;;
45356;SDS011;31092;51.924;21.448;2024-03-23T07:38:46;34.05;;;15.77;;
45356;SDS011;31092;51.924;21.448;2024-03-23T07:41:16;29.05;;;14.48;;
45356;SDS011;31092;51.924;21.448;2024-03-23T07:43:45;17.73;;;8.68;;
45356;SDS011;31092;51.924;21.448;2024-03-23T07:46:12;18.08;;;9.48;;
45356;SDS011;31092;51.924;21.448;2024-03-23T07:48:38;18.30;;;8.95;;
45356;SDS011;31092;51.924;21.448;2024-03-23T07:51:08;15.02;;;8.27;;
45356;SDS011;31092;51.924;21.448;2024-03-23T07:53:35;27.52;;;14.43;;
45356;SDS011;31092;51.924;21.448;2024-03-23T07:56:05;32.60;;;18.20;;
45356;SDS011;31092;51.924;21.448;2024-03-23T07:58:32;24.15;;;12.32;;
45356;SDS011;31092;51.924;21.448;2024-03-23T08:01:08;15.13;;;9.15;;
45356;SDS011;31092;51.924;21.448;2024-03-23T08:03:35;19.83;;;9.02;;
45356;SDS011;31092;51.924;21.448;2024-03-23T08:08:40;14.10;;;7.78;;
45356;SDS011;31092;51.924;21.448;2024-03-23T08:11:07;13.43;;;7.80;;
45356;SDS011;31092;51.924;21.448;2024-03-23T08:13:33;15.55;;;9.38;;
45356;SDS011;31092;51.924;21.448;2024-03-23T08:16:00;36.42;;;20.77;;
45356;SDS011;31092;51.924;21.448;2024-03-23T08:18:27;19.75;;;11.93;;
45356;SDS011;31092;51.924;21.448;2024-03-23T08:20:56;18.83;;;10.52;;
45356;SDS011;31092;51.924;21.448;2024-03-23T08:23:30;12.40;;;7.53;;
45356;SDS011;31092;51.924;21.448;2024-03-23T08:26:01;9.38;;;7.47;;
45356;SDS011;31092;51.924;21.448;2024-03-23T08:28:31;13.05;;;7.65;;
45356;SDS011;31092;51.924;21.448;2024-03-23T08:31:00;13.90;;;7.47;;
45356;SDS011;31092;51.924;21.448;2024-03-23T08:33:27;20.88;;;10.88;;
45356;SDS011;31092;51.924;21.448;2024-03-23T08:35:54;12.68;;;8.48;;
45356;SDS011;31092;51.924;21.448;2024-03-23T08:38:22;11.32;;;6.82;;
45356;SDS011;31092;51.924;21.448;2024-03-23T08:40:56;13.15;;;6.57;;
45356;SDS011;31092;51.924;21.448;2024-03-23T08:43:26;13.00;;;7.32;;
45356;SDS011;31092;51.924;21.448;2024-03-23T08:45:52;10.75;;;6.20;;
45356;SDS011;31092;51.924;21.448;2024-03-23T08:48:18;10.13;;;6.30;;
45356;SDS011;31092;51.924;21.448;2024-03-23T08:50:58;8.23;;;5.07;;
45356;SDS011;31092;51.924;21.448;2024-03-23T08:53:30;10.25;;;6.07;;
45356;SDS011;31092;51.924;21.448;2024-03-23T08:55:57;9.60;;;6.30;;
45356;SDS011;31092;51.924;21.448;2024-03-23T08:58:23;10.05;;;6.38;;
45356;SDS011;31092;51.924;21.448;2024-03-23T09:00:53;10.18;;;6.05;;
45356;SDS011;31092;51.924;21.448;2024-03-23T09:03:26;9.32;;;6.28;;
45356;SDS011;31092;51.924;21.448;2024-03-23T09:05:52;9.85;;;6.18;;
45356;SDS011;31092;51.924;21.448;2024-03-23T09:08:18;10.32;;;6.28;;
45356;SDS011;31092;51.924;21.448;2024-03-23T09:10:44;9.60;;;6.10;;
45356;SDS011;31092;51.924;21.448;2024-03-23T09:13:10;7.85;;;6.00;;
45356;SDS011;31092;51.924;21.448;2024-03-23T09:15:36;9.63;;;6.03;;
45356;SDS011;31092;51.924;21.448;2024-03-23T09:18:03;13.57;;;7.03;;
45356;SDS011;31092;51.924;21.448;2024-03-23T09:20:32;9.18;;;6.43;;
45356;SDS011;31092;51.924;21.448;2024-03-23T09:22:58;11.00;;;6.57;;
45356;SDS011;31092;51.924;21.448;2024-03-23T09:25:23;11.27;;;6.25;;
45356;SDS011;31092;51.924;21.448;2024-03-23T09:27:49;14.32;;;6.75;;
45356;SDS011;31092;51.924;21.448;2024-03-23T09:30:15;13.68;;;7.47;;
45356;SDS011;31092;51.924;21.448;2024-03-23T09:32:42;13.13;;;7.70;;
45356;SDS011;31092;51.924;21.448;2024-03-23T09:35:08;13.90;;;7.75;;
45356;SDS011;31092;51.924;21.448;2024-03-23T09:37:33;9.73;;;6.35;;
45356;SDS011;31092;51.924;21.448;2024-03-23T09:39:59;9.73;;;7.38;;
45356;SDS011;31092;51.924;21.448;2024-03-23T09:42:25;11.98;;;7.18;;
45356;SDS011;31092;51.924;21.448;2024-03-23T09:44:51;11.20;;;7.68;;
45356;SDS011;31092;51.924;21.448;2024-03-23T09:47:17;11.88;;;6.28;;
45356;SDS011;31092;51.924;21.448;2024-03-23T09:49:43;10.38;;;7.47;;
45356;SDS011;31092;51.924;21.448;2024-03-23T09:52:09;8.95;;;6.55;;
45356;SDS011;31092;51.924;21.448;2024-03-23T09:54:35;11.77;;;6.60;;
45356;SDS011;31092;51.924;21.448;2024-03-23T09:57:01;12.18;;;7.32;;
45356;SDS011;31092;51.924;21.448;2024-03-23T09:59:27;11.48;;;6.50;;
45356;SDS011;31092;51.924;21.448;2024-03-23T10:01:54;11.10;;;7.10;;
45356;SDS011;31092;51.924;21.448;2024-03-23T10:04:36;11.52;;;7.13;;
45356;SDS011;31092;51.924;21.448;2024-03-23T10:07:11;9.57;;;6.65;;
45356;SDS011;31092;51.924;21.448;2024-03-23T10:09:38;10.73;;;7.38;;
45356;SDS011;31092;51.924;21.448;2024-03-23T10:12:10;10.63;;;7.13;;
45356;SDS011;31092;51.924;21.448;2024-03-23T10:14:38;12.55;;;7.93;;
45356;SDS011;31092;51.924;21.448;2024-03-23T10:17:13;12.50;;;7.50;;
45356;SDS011;31092;51.924;21.448;2024-03-23T10:19:46;12.23;;;7.45;;
45356;SDS011;31092;51.924;21.448;2024-03-23T10:22:16;11.52;;;7.60;;
45356;SDS011;31092;51.924;21.448;2024-03-23T10:24:45;10.77;;;6.82;;
45356;SDS011;31092;51.924;21.448;2024-03-23T10:27:15;13.82;;;7.50;;
45356;SDS011;31092;51.924;21.448;2024-03-23T10:29:48;11.60;;;7.70;;
45356;SDS011;31092;51.924;21.448;2024-03-23T10:32:17;13.93;;;8.43;;
45356;SDS011;31092;51.924;21.448;2024-03-23T10:34:43;13.20;;;7.25;;
45356;SDS011;31092;51.924;21.448;2024-03-23T10:37:10;14.45;;;8.88;;
45356;SDS011;31092;51.924;21.448;2024-03-23T10:39:36;11.45;;;7.68;;
45356;SDS011;31092;51.924;21.448;2024-03-23T10:42:04;11.63;;;7.28;;
45356;SDS011;31092;51.924;21.448;2024-03-23T10:44:30;12.23;;;7.80;;
45356;SDS011;31092;51.924;21.448;2024-03-23T10:46:57;10.85;;;8.25;;
45356;SDS011;31092;51.924;21.448;2024-03-23T10:49:27;11.50;;;7.20;;
45356;SDS011;31092;51.924;21.448;2024-03-23T10:51:55;10.75;;;6.97;;
45356;SDS011;31092;51.924;21.448;2024-03-23T10:54:39;10.30;;;7.15;;
45356;SDS011;31092;51.924;21.448;2024-03-23T10:57:08;10.20;;;6.82;;
45356;SDS011;31092;51.924;21.448;2024-03-23T10:59:36;14.70;;;7.82;;
45356;SDS011;31092;51.924;21.448;2024-03-23T11:02:03;8.65;;;6.70;;
45356;SDS011;31092;51.924;21.448;2024-03-23T11:04:29;12.68;;;7.05;;
45356;SDS011;31092;51.924;21.448;2024-03-23T11:06:56;10.30;;;6.53;;
45356;SDS011;31092;51.924;21.448;2024-03-23T11:15:05;8.65;;;5.85;;
45356;SDS011;31092;51.924;21.448;2024-03-23T11:17:36;10.77;;;5.85;;
45356;SDS011;31092;51.924;21.448;2024-03-23T11:20:02;9.15;;;6.72;;
45356;SDS011;31092;51.924;21.448;2024-03-23T11:27:47;8.07;;;5.82;;
45356;SDS011;31092;51.924;21.448;2024-03-23T11:30:15;20.48;;;12.48;;
45356;SDS011;31092;51.924;21.448;2024-03-23T11:32:45;11.27;;;7.65;;
45356;SDS011;31092;51.924;21.448;2024-03-23T11:35:31;8.23;;;5.57;;
45356;SDS011;31092;51.924;21.448;2024-03-23T11:38:16;8.60;;;5.97;;
45356;SDS011;31092;51.924;21.448;2024-03-23T11:40:46;5.47;;;4.82;;
45356;SDS011;31092;51.924;21.448;2024-03-23T11:43:18;7.03;;;5.15;;
45356;SDS011;31092;51.924;21.448;2024-03-23T11:45:46;9.82;;;6.53;;
45356;SDS011;31092;51.924;21.448;2024-03-23T11:48:20;7.55;;;6.00;;
45356;SDS011;31092;51.924;21.448;2024-03-23T11:50:48;10.57;;;5.50;;
45356;SDS011;31092;51.924;21.448;2024-03-23T11:53:18;7.03;;;5.50;;
45356;SDS011;31092;51.924;21.448;2024-03-23T11:55:46;9.30;;;5.85;;
45356;SDS011;31092;51.924;21.448;2024-03-23T11:58:16;16.48;;;10.27;;
45356;SDS011;31092;51.924;21.448;2024-03-23T12:03:16;11.55;;;6.00;;
45356;SDS011;31092;51.924;21.448;2024-03-23T12:05:46;6.35;;;5.18;;
45356;SDS011;31092;51.924;21.448;2024-03-23T12:08:25;6.80;;;4.95;;
45356;SDS011;31092;51.924;21.448;2024-03-23T12:11:03;5.93;;;4.90;;
45356;SDS011;31092;51.924;21.448;2024-03-23T12:13:31;6.55;;;5.18;;
45356;SDS011;31092;51.924;21.448;2024-03-23T12:16:08;8.82;;;6.22;;
45356;SDS011;31092;51.924;21.448;2024-03-23T12:18:42;7.80;;;5.95;;
45356;SDS011;31092;51.924;21.448;2024-03-23T12:21:09;11.15;;;8.88;;
45356;SDS011;31092;51.924;21.448;2024-03-23T12:23:35;10.82;;;7.63;;
45356;SDS011;31092;51.924;21.448;2024-03-23T12:26:01;8.63;;;5.45;;
45356;SDS011;31092;51.924;21.448;2024-03-23T12:28:27;12.23;;;4.95;;
45356;SDS011;31092;51.924;21.448;2024-03-23T12:30:53;7.00;;;5.03;;
45356;SDS011;31092;51.924;21.448;2024-03-23T12:33:19;5.88;;;4.88;;
45356;SDS011;31092;51.924;21.448;2024-03-23T12:35:46;8.43;;;5.78;;
45356;SDS011;31092;51.924;21.448;2024-03-23T12:38:12;13.90;;;8.48;;
45356;SDS011;31092;51.924;21.448;2024-03-23T12:40:38;5.60;;;5.07;;
45356;SDS011;31092;51.924;21.448;2024-03-23T12:43:03;7.22;;;5.78;;
45356;SDS011;31092;51.924;21.448;2024-03-23T12:45:29;11.48;;;5.70;;
45356;SDS011;31092;51.924;21.448;2024-03-23T12:47:54;5.80;;;5.18;;
45356;SDS011;31092;51.924;21.448;2024-03-23T12:50:20;5.97;;;4.40;;
45356;SDS011;31092;51.924;21.448;2024-03-23T12:52:46;5.65;;;5.05;;
45356;SDS011;31092;51.924;21.448;2024-03-23T12:55:12;4.80;;;4.30;;
45356;SDS011;31092;51.924;21.448;2024-03-23T12:57:38;8.85;;;4.60;;
45356;SDS011;31092;51.924;21.448;2024-03-23T13:00:04;7.22;;;4.50;;
45356;SDS011;31092;51.924;21.448;2024-03-23T13:02:31;5.35;;;4.15;;
45356;SDS011;31092;51.924;21.448;2024-03-23T13:04:57;5.93;;;4.50;;
45356;SDS011;31092;51.924;21.448;2024-03-23T13:07:23;5.65;;;4.45;;
45356;SDS011;31092;51.924;21.448;2024-03-23T13:09:52;5.32;;;4.57;;
45356;SDS011;31092;51.924;21.448;2024-03-23T13:12:20;6.10;;;4.85;;
45356;SDS011;31092;51.924;21.448;2024-03-23T13:14:46;5.82;;;4.05;;
45356;SDS011;31092;51.924;21.448;2024-03-23T13:17:12;4.45;;;4.05;;
45356;SDS011;31092;51.924;21.448;2024-03-23T13:19:38;6.75;;;4.95;;
45356;SDS011;31092;51.924;21.448;2024-03-23T13:22:04;59.90;;;26.98;;
45356;SDS011;31092;51.924;21.448;2024-03-23T13:24:31;14.13;;;7.65;;
45356;SDS011;31092;51.924;21.448;2024-03-23T13:26:57;47.95;;;22.38;;
45356;SDS011;31092;51.924;21.448;2024-03-23T13:29:23;13.57;;;8.75;;
45356;SDS011;31092;51.924;21.448;2024-03-23T13:31:49;7.20;;;4.70;;
45356;SDS011;31092;51.924;21.448;2024-03-23T13:34:15;5.88;;;4.60;;
45356;SDS011;31092;51.924;21.448;2024-03-23T13:36:42;5.75;;;3.70;;
45356;SDS011;31092;51.924;21.448;2024-03-23T13:39:11;6.97;;;4.53;;
45356;SDS011;31092;51.924;21.448;2024-03-23T13:41:38;4.05;;;3.55;;
45356;SDS011;31092;51.924;21.448;2024-03-23T13:44:07;7.10;;;4.10;;
45356;SDS011;31092;51.924;21.448;2024-03-23T13:46:35;4.32;;;3.95;;
45356;SDS011;31092;51.924;21.448;2024-03-23T13:49:01;9.15;;;4.15;;
45356;SDS011;31092;51.924;21.448;2024-03-23T13:51:26;4.82;;;4.30;;
45356;SDS011;31092;51.924;21.448;2024-03-23T13:53:55;5.88;;;4.43;;
45356;SDS011;31092;51.924;21.448;2024-03-23T13:56:24;4.90;;;4.18;;
45356;SDS011;31092;51.924;21.448;2024-03-23T13:58:50;6.22;;;4.53;;
45356;SDS011;31092;51.924;21.448;2024-03-23T14:01:16;7.10;;;5.43;;
45356;SDS011;31092;51.924;21.448;2024-03-23T14:03:42;7.03;;;5.05;;
45356;SDS011;31092;51.924;21.448;2024-03-23T14:06:09;6.50;;;4.30;;
45356;SDS011;31092;51.924;21.448;2024-03-23T14:08:38;4.80;;;4.40;;
45356;SDS011;31092;51.924;21.448;2024-03-23T14:11:08;6.68;;;4.85;;
45356;SDS011;31092;51.924;21.448;2024-03-23T14:13:34;5.10;;;4.15;;
45356;SDS011;31092;51.924;21.448;2024-03-23T14:16:00;8.25;;;4.22;;
45356;SDS011;31092;51.924;21.448;2024-03-23T14:18:26;5.63;;;3.75;;
45356;SDS011;31092;51.924;21.448;2024-03-23T14:20:56;5.18;;;4.68;;
45356;SDS011;31092;51.924;21.448;2024-03-23T14:23:25;4.90;;;3.88;;
45356;SDS011;31092;51.924;21.448;2024-03-23T14:25:54;6.00;;;4.40;;
45356;SDS011;31092;51.924;21.448;2024-03-23T14:28:21;4.87;;;3.80;;
45356;SDS011;31092;51.924;21.448;2024-03-23T14:30:48;6.82;;;4.30;;
45356;SDS011;31092;51.924;21.448;2024-03-23T14:33:15;4.65;;;3.90;;
45356;SDS011;31092;51.924;21.448;2024-03-23T14:35:41;6.38;;;4.10;;
45356;SDS011;31092;51.924;21.448;2024-03-23T14:38:06;6.47;;;4.10;;
45356;SDS011;31092;51.924;21.448;2024-03-23T14:40:32;5.55;;;4.53;;
45356;SDS011;31092;51.924;21.448;2024-03-23T14:42:58;5.18;;;4.68;;
45356;SDS011;31092;51.924;21.448;2024-03-23T14:45:24;4.30;;;3.97;;
45356;SDS011;31092;51.924;21.448;2024-03-23T14:47:50;5.70;;;4.47;;
45356;SDS011;31092;51.924;21.448;2024-03-23T14:50:16;7.80;;;4.43;;
45356;SDS011;31092;51.924;21.448;2024-03-23T14:52:45;5.50;;;4.15;;
45356;SDS011;31092;51.924;21.448;2024-03-23T14:55:14;5.10;;;4.10;;
45356;SDS011;31092;51.924;21.448;2024-03-23T14:57:40;13.65;;;4.82;;
45356;SDS011;31092;51.924;21.448;2024-03-23T15:00:06;6.53;;;4.65;;
45356;SDS011;31092;51.924;21.448;2024-03-23T15:02:33;5.35;;;4.07;;
45356;SDS011;31092;51.924;21.448;2024-03-23T15:04:59;6.10;;;4.22;;
45356;SDS011;31092;51.924;21.448;2024-03-23T15:07:26;5.57;;;4.68;;
45356;SDS011;31092;51.924;21.448;2024-03-23T15:09:52;5.38;;;4.20;;
45356;SDS011;31092;51.924;21.448;2024-03-23T15:12:18;7.95;;;4.93;;
45356;SDS011;31092;51.924;21.448;2024-03-23T15:14:44;5.13;;;4.47;;
45356;SDS011;31092;51.924;21.448;2024-03-23T15:17:11;7.90;;;5.40;;
45356;SDS011;31092;51.924;21.448;2024-03-23T15:19:37;5.45;;;4.72;;
45356;SDS011;31092;51.924;21.448;2024-03-23T15:22:05;6.90;;;4.97;;
45356;SDS011;31092;51.924;21.448;2024-03-23T15:24:31;8.02;;;5.47;;
45356;SDS011;31092;51.924;21.448;2024-03-23T15:26:59;5.75;;;5.15;;
45356;SDS011;31092;51.924;21.448;2024-03-23T15:29:28;6.63;;;5.07;;
45356;SDS011;31092;51.924;21.448;2024-03-23T15:31:54;8.15;;;5.95;;
45356;SDS011;31092;51.924;21.448;2024-03-23T15:34:54;8.73;;;6.43;;